createdAt,value
2018-08-04T00:02:16.776Z,18.20
2018-08-04T00:04:44.948Z,16.97
2018-08-04T00:07:13.099Z,17.00
2018-08-04T00:09:41.312Z,17.80
2018-08-04T00:12:09.649Z,18.93
2018-08-04T00:14:37.868Z,21.00
2018-08-04T00:17:06.085Z,18.10
2018-08-04T00:19:34.223Z,18.70
2018-08-04T00:22:02.414Z,18.60
2018-08-04T00:24:30.592Z,17.77
2018-08-04T00:26:58.770Z,18.83
2018-08-04T00:29:26.924Z,18.00
2018-08-04T00:31:55.112Z,18.30
2018-08-04T00:34:23.244Z,18.40
2018-08-04T00:36:51.428Z,19.73
2018-08-04T00:39:19.644Z,18.87
2018-08-04T00:41:47.798Z,19.27
2018-08-04T00:44:15.992Z,17.87
2018-08-04T00:46:44.141Z,17.80
2018-08-04T00:49:12.336Z,17.47
2018-08-04T00:51:40.528Z,16.37
2018-08-04T00:54:08.695Z,16.30
2018-08-04T00:56:36.874Z,17.60
2018-08-04T00:59:05.100Z,17.83
2018-08-04T01:01:33.320Z,17.80
2018-08-04T01:04:01.464Z,19.13
2018-08-04T01:06:29.665Z,18.10
2018-08-04T01:08:57.848Z,18.30
2018-08-04T01:11:26.101Z,18.83
2018-08-04T01:13:54.264Z,17.33
2018-08-04T01:16:22.408Z,18.10
2018-08-04T01:18:50.604Z,16.17
2018-08-04T01:21:18.828Z,16.20
2018-08-04T01:23:46.967Z,16.20
2018-08-04T01:26:15.149Z,16.60
2018-08-04T01:28:43.293Z,16.70
2018-08-04T01:31:11.464Z,19.53
2018-08-04T01:33:39.628Z,17.80
2018-08-04T01:36:07.800Z,17.90
2018-08-04T01:38:35.967Z,18.90
2018-08-04T01:41:04.125Z,19.00
2018-08-04T01:43:32.304Z,18.13
2018-08-04T01:46:00.488Z,18.13
2018-08-04T01:48:28.668Z,17.67
2018-08-04T01:50:56.848Z,17.70
2018-08-04T01:53:25.001Z,17.07
2018-08-04T01:55:53.240Z,17.40
2018-08-04T01:58:21.416Z,17.77
2018-08-04T02:00:49.632Z,19.37
2018-08-04T02:03:17.821Z,17.10
2018-08-04T02:05:45.973Z,17.73
2018-08-04T02:08:14.156Z,17.83
2018-08-04T02:10:42.332Z,19.23
2018-08-04T02:13:10.529Z,17.13
2018-08-04T02:15:38.703Z,25.10
2018-08-04T02:18:06.856Z,17.53
2018-08-04T02:20:35.033Z,19.23
2018-08-04T02:23:03.206Z,23.83
2018-08-04T02:25:31.384Z,17.80
2018-08-04T02:27:59.537Z,17.17
2018-08-04T02:30:27.746Z,17.70
2018-08-04T02:32:55.932Z,19.70
2018-08-04T02:35:24.091Z,20.87
2018-08-04T02:37:52.297Z,19.50
2018-08-04T02:40:20.465Z,19.10
2018-08-04T02:42:48.695Z,17.90
2018-08-04T02:45:16.899Z,18.50
2018-08-04T02:47:45.045Z,20.63
2018-08-04T02:50:13.251Z,19.10
2018-08-04T02:52:41.393Z,23.73
2018-08-04T02:55:09.580Z,20.70
2018-08-04T02:57:37.778Z,21.00
2018-08-04T03:00:06.166Z,20.20
2018-08-04T03:02:34.389Z,20.30
2018-08-04T03:05:02.665Z,19.03
2018-08-04T03:07:30.868Z,22.93
2018-08-04T03:09:59.040Z,19.47
2018-08-04T03:12:27.193Z,19.93
2018-08-04T03:14:55.368Z,22.60
2018-08-04T03:17:23.528Z,22.57
2018-08-04T03:19:51.703Z,21.50
2018-08-04T03:22:19.848Z,20.07
2018-08-04T03:24:48.068Z,19.70
2018-08-04T03:27:16.224Z,20.60
2018-08-04T03:29:44.420Z,22.57
2018-08-04T03:32:12.608Z,21.60
2018-08-04T03:34:40.758Z,20.53
2018-08-04T03:37:08.969Z,22.57
2018-08-04T03:39:37.132Z,21.63
2018-08-04T03:42:05.338Z,22.67
2018-08-04T03:44:33.549Z,24.13
2018-08-04T03:47:01.694Z,23.53
2018-08-04T03:49:29.889Z,22.33
2018-08-04T03:51:58.040Z,19.13
2018-08-04T03:54:26.228Z,19.83
2018-08-04T03:56:54.404Z,22.97
2018-08-04T03:59:22.551Z,22.43
2018-08-04T04:01:50.792Z,21.10
2018-08-04T04:04:18.985Z,23.30
2018-08-04T04:06:47.166Z,22.97
2018-08-04T04:09:15.320Z,23.43
2018-08-04T04:11:43.505Z,20.63
2018-08-04T04:14:11.711Z,20.10
2018-08-04T04:16:39.864Z,21.17
2018-08-04T04:19:08.052Z,22.97
2018-08-04T04:21:36.192Z,26.73
2018-08-04T04:24:04.425Z,23.30
2018-08-04T04:26:32.568Z,24.10
2018-08-04T04:29:00.770Z,25.67
2018-08-04T04:31:28.984Z,21.70
2018-08-04T04:33:57.128Z,23.50
2018-08-04T04:36:25.317Z,23.30
2018-08-04T04:38:53.472Z,23.23
2018-08-04T04:41:21.644Z,24.47
2018-08-04T04:43:50.223Z,22.87
2018-08-04T04:46:18.416Z,23.53
2018-08-04T04:48:46.604Z,21.93
2018-08-04T04:51:14.760Z,21.60
2018-08-04T04:53:42.944Z,23.90
2018-08-04T04:56:11.143Z,20.37
2018-08-04T04:58:39.335Z,22.50
2018-08-04T05:01:07.539Z,21.93
2018-08-04T05:03:35.752Z,23.80
2018-08-04T05:06:03.943Z,22.97
2018-08-04T05:08:32.109Z,21.47
2018-08-04T05:11:00.301Z,21.37
2018-08-04T05:13:28.498Z,27.83
2018-08-04T05:15:56.676Z,21.57
2018-08-04T05:18:24.875Z,21.47
2018-08-04T05:20:53.053Z,20.73
2018-08-04T05:23:21.248Z,19.73
2018-08-04T05:25:49.422Z,20.27
2018-08-04T05:28:17.600Z,22.63
2018-08-04T05:30:45.789Z,20.23
2018-08-04T05:33:14.329Z,20.57
2018-08-04T05:35:42.689Z,21.27
2018-08-04T05:38:10.952Z,21.10
2018-08-04T05:40:39.148Z,20.87
2018-08-04T05:43:07.344Z,20.83
2018-08-04T05:45:35.497Z,19.73
2018-08-04T05:48:03.752Z,24.77
2018-08-04T05:50:31.928Z,18.80
2018-08-04T05:53:00.168Z,20.37
2018-08-04T05:55:28.421Z,23.60
2018-08-04T05:57:56.644Z,22.83
2018-08-04T06:00:24.933Z,21.93
2018-08-04T06:02:53.121Z,25.13
2018-08-04T06:05:21.322Z,19.50
2018-08-04T06:07:49.604Z,18.93
2018-08-04T06:10:17.775Z,19.10
2018-08-04T06:12:46.033Z,23.63
2018-08-04T06:15:14.261Z,20.23
2018-08-04T06:17:42.541Z,20.90
2018-08-04T06:20:10.752Z,20.23
2018-08-04T06:22:38.908Z,21.50
2018-08-04T06:25:07.097Z,21.30
2018-08-04T06:27:35.244Z,18.97
2018-08-04T06:30:03.672Z,20.43
2018-08-04T06:32:31.913Z,18.43
2018-08-04T06:35:00.060Z,22.20
2018-08-04T06:37:28.257Z,21.07
2018-08-04T06:39:56.401Z,18.60
2018-08-04T06:42:24.612Z,20.03
2018-08-04T06:44:52.805Z,21.23
2018-08-04T06:47:20.973Z,20.57
2018-08-04T06:49:49.140Z,22.47
2018-08-04T06:52:17.309Z,18.57
2018-08-04T06:54:45.492Z,20.63
2018-08-04T06:57:13.770Z,21.93
2018-08-04T06:59:41.924Z,21.37
2018-08-04T07:02:10.149Z,19.40
2018-08-04T07:04:38.344Z,18.33
2018-08-04T07:07:07.232Z,16.23
2018-08-04T07:09:35.515Z,16.40
2018-08-04T07:12:03.659Z,19.80
2018-08-04T07:14:31.836Z,16.37
2018-08-04T07:17:00.094Z,19.87
2018-08-04T07:19:28.380Z,16.70
2018-08-04T07:21:56.601Z,18.43
2018-08-04T07:24:24.789Z,15.40
2018-08-04T07:26:52.989Z,18.00
2018-08-04T07:29:21.140Z,15.73
2018-08-04T07:31:49.343Z,16.13
2018-08-04T07:34:17.572Z,15.90
2018-08-04T07:36:45.721Z,17.00
2018-08-04T07:39:13.934Z,17.27
2018-08-04T07:41:42.108Z,17.00
2018-08-04T07:44:10.302Z,15.20
2018-08-04T07:46:38.532Z,17.40
2018-08-04T07:49:06.745Z,18.03
2018-08-04T07:51:34.961Z,14.50
2018-08-04T07:54:03.105Z,17.17
2018-08-04T07:56:31.330Z,16.17
2018-08-04T07:58:59.511Z,16.40
2018-08-04T08:01:27.708Z,15.83
2018-08-04T08:03:55.981Z,16.53
2018-08-04T08:06:24.164Z,13.70
2018-08-04T08:08:52.396Z,15.67
2018-08-04T08:11:20.692Z,14.67
2018-08-04T08:13:48.880Z,14.90
2018-08-04T08:16:17.097Z,14.93
2018-08-04T08:18:45.282Z,13.57
2018-08-04T08:21:13.541Z,15.23
2018-08-04T08:23:41.855Z,15.40
2018-08-04T08:26:13.035Z,17.53
2018-08-04T08:28:42.061Z,27.33
2018-08-04T08:31:10.418Z,15.40
2018-08-04T08:33:39.555Z,17.60
2018-08-04T08:36:08.319Z,15.93
2018-08-04T08:38:36.638Z,23.53
2018-08-04T08:41:04.841Z,14.07
2018-08-04T08:43:33.089Z,14.90
2018-08-04T08:46:01.378Z,15.30
2018-08-04T08:48:29.550Z,20.37
2018-08-04T08:50:57.776Z,13.87
2018-08-04T08:53:26.161Z,76.20
2018-08-04T08:55:54.283Z,14.00
2018-08-04T08:58:22.528Z,15.60
2018-08-04T09:00:50.716Z,14.50
2018-08-04T09:03:18.980Z,14.47
2018-08-04T09:05:47.236Z,13.00
2018-08-04T09:08:15.735Z,13.40
2018-08-04T09:10:44.035Z,12.87
2018-08-04T09:13:12.221Z,15.00
2018-08-04T09:15:40.474Z,13.30
2018-08-04T09:18:08.648Z,13.23
2018-08-04T09:20:36.830Z,11.93
2018-08-04T09:23:05.086Z,12.57
2018-08-04T09:25:33.313Z,12.20
2018-08-04T09:28:01.484Z,12.10
2018-08-04T09:30:29.695Z,12.20
2018-08-04T09:32:57.865Z,11.93
2018-08-04T09:35:26.265Z,11.43
2018-08-04T09:37:54.468Z,13.03
2018-08-04T09:40:22.692Z,16.07
2018-08-04T09:42:50.880Z,12.60
2018-08-04T09:45:19.049Z,12.33
2018-08-04T09:47:47.808Z,11.77
2018-08-04T09:50:15.982Z,11.80
2018-08-04T09:52:44.179Z,12.60
2018-08-04T09:55:12.721Z,11.53
2018-08-04T09:57:41.449Z,13.00
2018-08-04T10:00:15.552Z,14.40
2018-08-04T10:02:43.746Z,12.03
2018-08-04T10:05:12.014Z,13.73
2018-08-04T10:07:40.164Z,11.67
2018-08-04T10:10:08.407Z,14.27
2018-08-04T10:12:36.552Z,12.20
2018-08-04T10:15:06.996Z,15.67
2018-08-04T10:17:35.255Z,18.30
2018-08-04T10:20:03.632Z,12.93
2018-08-04T10:22:31.861Z,19.70
2018-08-04T10:25:00.079Z,11.87
2018-08-04T10:27:28.296Z,12.87
2018-08-04T10:29:56.534Z,9.60
2018-08-04T10:32:24.788Z,8.10
2018-08-04T10:34:53.012Z,10.43
2018-08-04T10:37:21.183Z,10.93
2018-08-04T10:39:49.397Z,15.17
2018-08-04T10:42:17.611Z,7.10
2018-08-04T10:44:45.776Z,7.47
2018-08-04T10:47:13.981Z,8.80
2018-08-04T10:49:42.153Z,23.57
2018-08-04T10:52:10.404Z,9.20
2018-08-04T10:54:38.700Z,7.67
2018-08-04T10:57:06.876Z,7.10
2018-08-04T10:59:35.164Z,6.87
2018-08-04T11:02:03.388Z,11.70
2018-08-04T11:04:31.577Z,9.80
2018-08-04T11:06:59.774Z,7.33
2018-08-04T11:09:28.068Z,7.37
2018-08-04T11:11:56.336Z,6.70
2018-08-04T11:14:24.522Z,7.50
2018-08-04T11:16:52.724Z,8.70
2018-08-04T11:19:20.916Z,7.13
2018-08-04T11:21:49.084Z,6.33
2018-08-04T11:24:17.299Z,8.20
2018-08-04T11:26:45.540Z,7.20
2018-08-04T11:29:13.809Z,6.90
2018-08-04T11:31:42.020Z,6.40
2018-08-04T11:34:10.185Z,10.57
2018-08-04T11:36:38.373Z,7.93
2018-08-04T11:39:08.558Z,15.43
2018-08-04T11:41:36.764Z,12.17
2018-08-04T11:44:05.012Z,8.50
2018-08-04T11:46:33.225Z,8.70
2018-08-04T11:49:01.439Z,7.47
2018-08-04T11:51:29.626Z,11.17
2018-08-04T11:53:57.830Z,7.20
2018-08-04T11:56:26.032Z,8.20
2018-08-04T11:58:54.184Z,8.37
2018-08-04T12:01:22.397Z,8.90
2018-08-04T12:03:50.552Z,15.17
2018-08-04T12:06:18.760Z,8.40
2018-08-04T12:08:46.985Z,7.13
2018-08-04T12:11:15.180Z,6.63
2018-08-04T12:13:43.428Z,6.70
2018-08-04T12:16:11.622Z,14.23
2018-08-04T12:18:39.812Z,29.53
2018-08-04T12:21:08.049Z,6.43
2018-08-04T12:23:36.224Z,7.43
2018-08-04T12:26:04.465Z,6.37
2018-08-04T12:28:32.379Z,7.40
2018-08-04T12:31:00.560Z,8.33
2018-08-04T12:33:28.700Z,12.20
2018-08-04T12:35:56.892Z,7.23
2018-08-04T12:38:25.105Z,8.30
2018-08-04T12:40:53.267Z,8.07
2018-08-04T12:43:21.472Z,7.00
2018-08-04T12:45:49.628Z,20.87
2018-08-04T12:48:17.827Z,5.77
2018-08-04T12:50:46.027Z,7.40
2018-08-04T12:53:14.185Z,7.73
2018-08-04T12:55:42.497Z,7.17
2018-08-04T12:58:10.709Z,6.60
2018-08-04T13:00:38.896Z,8.17
2018-08-04T13:03:07.098Z,7.33
2018-08-04T13:05:35.265Z,6.17
2018-08-04T13:08:03.518Z,6.13
2018-08-04T13:10:31.719Z,7.57
2018-08-04T13:12:59.937Z,11.37
2018-08-04T13:15:28.136Z,5.90
2018-08-04T13:17:56.284Z,10.37
2018-08-04T13:20:24.483Z,6.97
2018-08-04T13:22:52.703Z,8.53
2018-08-04T13:25:20.852Z,6.33
2018-08-04T13:27:49.037Z,12.40
2018-08-04T13:30:17.191Z,7.03
2018-08-04T13:32:45.364Z,8.27
2018-08-04T13:35:13.540Z,6.33
2018-08-04T13:37:41.738Z,6.80
2018-08-04T13:40:10.050Z,7.20
2018-08-04T13:42:38.242Z,6.07
2018-08-04T13:45:06.811Z,6.43
2018-08-04T13:47:34.735Z,6.53
2018-08-04T13:50:03.040Z,8.57
2018-08-04T13:52:31.289Z,11.97
2018-08-04T13:54:59.452Z,6.07
2018-08-04T13:57:27.701Z,6.43
2018-08-04T13:59:55.889Z,7.40
2018-08-04T14:02:24.093Z,11.63
2018-08-04T14:04:52.280Z,7.03
2018-08-04T14:07:20.449Z,14.77
2018-08-04T14:09:48.644Z,30.67
2018-08-04T14:12:16.832Z,7.20
2018-08-04T14:14:45.036Z,7.30
2018-08-04T14:17:13.229Z,11.07
2018-08-04T14:19:41.377Z,9.20
2018-08-04T14:22:09.581Z,6.33
2018-08-04T14:24:37.740Z,8.70
2018-08-04T14:27:05.943Z,10.27
2018-08-04T14:29:34.137Z,7.13
2018-08-04T14:32:02.297Z,10.73
2018-08-04T14:34:30.490Z,9.20
2018-08-04T14:36:58.668Z,7.60
2018-08-04T14:39:26.902Z,7.03
2018-08-04T14:41:55.108Z,7.40
2018-08-04T14:44:23.305Z,7.67
2018-08-04T14:46:51.526Z,6.93
2018-08-04T14:49:19.665Z,8.73
2018-08-04T14:51:47.865Z,7.30
2018-08-04T14:54:16.085Z,7.57
2018-08-04T14:56:44.249Z,6.23
2018-08-04T14:59:12.444Z,6.60
2018-08-04T15:01:40.605Z,6.53
2018-08-04T15:04:08.853Z,7.47
2018-08-04T15:06:37.048Z,6.50
2018-08-04T15:09:07.752Z,7.30
2018-08-04T15:11:36.000Z,7.83
2018-08-04T15:14:04.285Z,7.80
2018-08-04T15:16:32.496Z,7.20
2018-08-04T15:19:00.728Z,8.70
2018-08-04T15:21:28.899Z,7.33
2018-08-04T15:23:57.116Z,8.30
2018-08-04T15:26:25.272Z,6.60
2018-08-04T15:28:53.476Z,6.93
2018-08-04T15:31:21.684Z,6.60
2018-08-04T15:33:50.079Z,8.40
2018-08-04T15:36:18.283Z,8.10
2018-08-04T15:38:46.428Z,7.93
2018-08-04T15:41:14.629Z,7.23
2018-08-04T15:43:42.808Z,8.03
2018-08-04T15:46:11.009Z,6.53
2018-08-04T15:48:39.188Z,7.07
2018-08-04T15:51:07.396Z,7.67
2018-08-04T15:53:35.608Z,10.10
2018-08-04T15:56:03.772Z,7.63
2018-08-04T15:58:31.965Z,6.90
2018-08-04T16:01:00.124Z,9.20
2018-08-04T16:03:28.309Z,7.40
2018-08-04T16:05:56.596Z,7.20
2018-08-04T16:08:24.760Z,7.57
2018-08-04T16:10:53.006Z,6.47
2018-08-04T16:13:21.201Z,6.70
2018-08-04T16:15:49.385Z,6.47
2018-08-04T16:18:17.566Z,7.13
2018-08-04T16:20:45.709Z,7.13
2018-08-04T16:23:13.912Z,7.03
2018-08-04T16:25:42.067Z,6.70
2018-08-04T16:28:10.253Z,7.47
2018-08-04T16:30:38.440Z,7.17
2018-08-04T16:33:06.604Z,7.70
2018-08-04T16:35:34.792Z,7.53
2018-08-04T16:38:02.964Z,7.10
2018-08-04T16:40:31.187Z,7.43
2018-08-04T16:42:59.402Z,6.83
2018-08-04T16:45:27.579Z,8.73
2018-08-04T16:47:55.836Z,7.07
2018-08-04T16:50:24.009Z,7.93
2018-08-04T16:52:52.197Z,13.53
2018-08-04T16:55:20.399Z,9.67
2018-08-04T16:57:48.577Z,11.90
2018-08-04T17:00:16.782Z,9.40
2018-08-04T17:02:44.921Z,13.57
2018-08-04T17:05:13.117Z,10.77
2018-08-04T17:07:41.308Z,9.43
2018-08-04T17:10:09.453Z,12.40
2018-08-04T17:12:37.704Z,9.70
2018-08-04T17:15:06.171Z,10.00
2018-08-04T17:17:34.396Z,10.33
2018-08-04T17:20:02.749Z,10.10
2018-08-04T17:22:30.916Z,10.07
2018-08-04T17:24:59.096Z,10.50
2018-08-04T17:27:27.252Z,10.87
2018-08-04T17:29:55.439Z,14.77
2018-08-04T17:32:23.636Z,9.50
2018-08-04T17:34:51.812Z,9.37
2018-08-04T17:37:20.048Z,14.07
2018-08-04T17:39:48.220Z,11.40
2018-08-04T17:42:16.417Z,11.27
2018-08-04T17:44:44.768Z,10.03
2018-08-04T17:47:12.964Z,10.30
2018-08-04T17:49:41.155Z,10.17
2018-08-04T17:52:09.402Z,12.43
2018-08-04T17:54:37.692Z,10.47
2018-08-04T17:57:06.220Z,10.50
2018-08-04T17:59:34.508Z,10.27
2018-08-04T18:02:02.681Z,11.53
2018-08-04T18:04:30.869Z,9.40
2018-08-04T18:06:59.108Z,10.90
2018-08-04T18:09:27.291Z,11.50
2018-08-04T18:11:55.519Z,13.23
2018-08-04T18:14:23.677Z,10.27
2018-08-04T18:16:51.909Z,10.47
2018-08-04T18:19:20.472Z,10.80
2018-08-04T18:21:48.634Z,11.93
2018-08-04T18:24:17.180Z,10.30
2018-08-04T18:26:45.340Z,10.23
2018-08-04T18:29:13.612Z,14.37
2018-08-04T18:31:41.765Z,10.33
2018-08-04T18:34:09.963Z,10.83
2018-08-04T18:36:38.214Z,20.50
2018-08-04T18:39:07.634Z,25.23
2018-08-04T18:41:35.846Z,13.73
2018-08-04T18:44:04.101Z,9.70
2018-08-04T18:46:32.264Z,10.97
2018-08-04T18:49:00.456Z,10.80
2018-08-04T18:51:28.621Z,15.10
2018-08-04T18:53:56.887Z,13.27
2018-08-04T18:56:25.065Z,12.00
2018-08-04T18:58:53.246Z,12.53
2018-08-04T19:01:21.444Z,10.90
2018-08-04T19:03:49.632Z,12.17
2018-08-04T19:06:17.841Z,20.37
2018-08-04T19:08:46.024Z,19.03
2018-08-04T19:11:14.221Z,17.20
2018-08-04T19:13:42.492Z,15.13
2018-08-04T19:16:10.710Z,15.13
2018-08-04T19:18:38.968Z,11.70
2018-08-04T19:21:07.209Z,14.03
2018-08-04T19:23:35.414Z,12.07
2018-08-04T19:26:03.617Z,11.00
2018-08-04T19:28:31.852Z,12.03
2018-08-04T19:31:00.169Z,21.17
2018-08-04T19:33:28.325Z,11.97
2018-08-04T19:35:56.516Z,10.77
2018-08-04T19:38:25.712Z,12.40
2018-08-04T19:40:53.885Z,12.03
2018-08-04T19:43:22.477Z,17.00
2018-08-04T19:45:50.649Z,17.97
2018-08-04T19:48:18.934Z,15.23
2018-08-04T19:50:47.108Z,16.30
2018-08-04T19:53:15.323Z,29.47
2018-08-04T19:55:43.536Z,13.93
2018-08-04T19:58:11.750Z,14.40
2018-08-04T20:00:39.917Z,20.53
2018-08-04T20:03:08.324Z,15.30
2018-08-04T20:05:36.476Z,18.63
2018-08-04T20:08:04.691Z,12.70
2018-08-04T20:10:32.944Z,19.67
2018-08-04T20:13:01.160Z,14.07
2018-08-04T20:15:29.343Z,12.63
2018-08-04T20:17:57.597Z,18.40
2018-08-04T20:20:25.846Z,14.10
2018-08-04T20:22:54.005Z,17.23
2018-08-04T20:25:22.213Z,16.50
2018-08-04T20:27:50.460Z,23.10
2018-08-04T20:30:18.608Z,26.47
2018-08-04T20:32:46.821Z,15.90
2018-08-04T20:35:14.992Z,17.67
2018-08-04T20:37:43.208Z,18.40
2018-08-04T20:40:11.397Z,13.20
2018-08-04T20:42:39.848Z,15.60
2018-08-04T20:45:08.133Z,12.97
2018-08-04T20:47:36.289Z,14.23
2018-08-04T20:50:04.697Z,18.67
2018-08-04T20:52:34.015Z,14.27
2018-08-04T20:55:02.362Z,12.77
2018-08-04T20:57:30.579Z,14.70
2018-08-04T20:59:58.731Z,15.80
2018-08-04T21:02:26.947Z,16.10
2018-08-04T21:04:55.108Z,16.87
2018-08-04T21:07:23.072Z,15.67
2018-08-04T21:09:51.308Z,14.83
2018-08-04T21:12:19.509Z,13.83
2018-08-04T21:14:47.781Z,14.17
2018-08-04T21:17:15.975Z,13.97
2018-08-04T21:19:44.241Z,13.90
2018-08-04T21:22:12.461Z,15.47
2018-08-04T21:24:40.713Z,20.57
2018-08-04T21:27:08.892Z,16.43
2018-08-04T21:29:37.125Z,16.07
2018-08-04T21:32:05.332Z,14.67
2018-08-04T21:34:33.507Z,16.87
2018-08-04T21:37:01.677Z,17.40
2018-08-04T21:39:29.876Z,16.73
2018-08-04T21:41:58.064Z,18.10
2018-08-04T21:44:26.323Z,16.60
2018-08-04T21:46:54.495Z,15.70
2018-08-04T21:49:22.671Z,18.17
2018-08-04T21:51:51.160Z,16.83
2018-08-04T21:54:20.193Z,15.00
2018-08-04T21:56:47.941Z,14.87
2018-08-04T21:59:16.204Z,14.13
2018-08-04T22:01:49.912Z,13.97
2018-08-04T22:04:18.156Z,15.77
2018-08-04T22:07:55.253Z,14.90
2018-08-04T22:10:23.497Z,16.27
2018-08-04T22:12:51.688Z,22.27
2018-08-04T22:15:19.876Z,20.90
2018-08-04T22:17:48.061Z,17.70
2018-08-04T22:20:18.508Z,17.43
2018-08-04T22:22:46.872Z,20.20
2018-08-04T22:25:16.417Z,17.77
2018-08-04T22:27:44.724Z,20.47
2018-08-04T22:30:15.215Z,17.00
2018-08-04T22:32:44.122Z,17.00
2018-08-04T22:35:12.053Z,14.80
2018-08-04T22:37:40.692Z,15.80
2018-08-04T22:40:09.885Z,19.60
2018-08-04T22:42:38.517Z,14.33
2018-08-04T22:46:21.572Z,24.70
2018-08-04T22:48:51.032Z,16.50
2018-08-04T22:51:27.548Z,17.03
2018-08-04T22:53:55.860Z,18.33
2018-08-04T22:56:24.325Z,17.97
2018-08-04T22:58:52.519Z,18.30
2018-08-04T23:01:20.666Z,19.47
2018-08-04T23:03:48.858Z,22.50
2018-08-04T23:06:17.016Z,19.80
2018-08-04T23:08:45.229Z,20.13
2018-08-04T23:11:13.444Z,18.97
2018-08-04T23:13:41.615Z,21.40
2018-08-04T23:16:09.817Z,17.17
2018-08-04T23:18:37.952Z,17.87
2018-08-04T23:21:06.447Z,16.83
2018-08-04T23:23:34.708Z,18.70
2018-08-04T23:26:02.948Z,16.43
2018-08-04T23:28:31.182Z,16.07
2018-08-04T23:30:59.348Z,21.60
2018-08-04T23:33:27.533Z,16.77
2018-08-04T23:35:55.938Z,16.60
2018-08-04T23:38:24.104Z,17.17
2018-08-04T23:40:52.303Z,18.37
2018-08-04T23:43:20.456Z,18.23
2018-08-04T23:45:48.656Z,16.37
2018-08-04T23:48:16.884Z,18.10
2018-08-04T23:50:45.065Z,19.53
2018-08-04T23:53:13.284Z,17.87
2018-08-04T23:55:41.432Z,18.37
2018-08-04T23:58:09.641Z,16.60
